Time;durP1;ratioP1;P1;durP2;ratioP2;P2;SDS_P1;SDS_P2;PMS_P1;PMS_P2;Temp;Humidity;BMP_temperature;BMP_pressure;BME280_temperature;BME280_humidity;BME280_pressure;Samples;Min_cycle;Max_cycle;Signal;HPM_P1;HPM_P2
2020/12/05 00:01:25;;;;;;;1.92;1.30;;;;;;;;;;5094243;28;20161;-69
2020/12/05 00:03:50;;;;;;;2.75;1.23;;;15.50;55.50;;;;;;5094054;28;20454;-69
2020/12/05 00:06:23;;;;;;;2.03;1.15;;;15.50;56.20;;;;;;5094371;28;20039;-69
2020/12/05 00:08:52;;;;;;;1.42;0.95;;;15.60;56.50;;;;;;5094248;28;20051;-69
2020/12/05 00:11:25;;;;;;;1.40;1.30;;;15.70;56.40;;;;;;5094272;28;20051;-69
2020/12/05 00:13:51;;;;;;;1.65;1.00;;;15.70;56.20;;;;;;5093833;28;20027;-69
2020/12/05 00:16:16;;;;;;;1.40;0.98;;;15.80;56.20;;;;;;5094192;28;20028;-69
2020/12/05 00:18:42;;;;;;;1.40;0.90;;;15.80;56.00;;;;;;5093823;28;20020;-69
2020/12/05 00:21:07;;;;;;;1.20;1.10;;;15.90;55.90;;;;;;5093667;28;20028;-69
2020/12/05 00:23:33;;;;;;;2.13;1.27;;;16.00;55.90;;;;;;5093694;28;20043;-69
2020/12/05 00:25:58;;;;;;;2.22;1.35;;;16.00;55.80;;;;;;5093944;28;20024;-69
2020/12/05 00:28:24;;;;;;;1.95;1.20;;;16.10;55.80;;;;;;5093883;28;20039;-69
2020/12/05 00:30:49;;;;;;;3.17;1.45;;;16.10;55.80;;;;;;5093873;28;20021;-69
2020/12/05 00:33:15;;;;;;;1.77;1.20;;;16.10;55.70;;;;;;5093828;28;20069;-69
2020/12/05 00:35:41;;;;;;;2.42;1.25;;;16.20;55.80;;;;;;5093482;28;20028;-69
2020/12/05 00:38:07;;;;;;;2.70;1.20;;;;;;;;;;5093734;28;20055;-69
2020/12/05 00:40:33;;;;;;;2.25;1.40;;;16.10;55.00;;;;;;5075227;28;20064;-69
2020/12/05 00:42:58;;;;;;;2.08;0.85;;;16.10;55.80;;;;;;5092683;28;20080;-69
2020/12/05 00:45:24;;;;;;;1.15;1.00;;;16.10;55.90;;;;;;5093304;28;20032;-69
2020/12/05 00:47:49;;;;;;;2.88;1.35;;;16.10;56.00;;;;;;5093540;28;20013;-69
2020/12/05 00:50:15;;;;;;;2.10;0.93;;;16.10;56.00;;;;;;5093407;28;20031;-69
2020/12/05 00:52:41;;;;;;;1.65;1.20;;;16.00;55.90;;;;;;5093160;28;20058;-69
2020/12/05 00:55:07;;;;;;;2.90;1.50;;;16.00;56.00;;;;;;5093481;28;20027;-69
2020/12/05 00:57:32;;;;;;;1.80;1.10;;;16.00;56.00;;;;;;5093060;28;20020;-69
2020/12/05 00:59:58;;;;;;;2.33;1.20;;;15.90;55.80;;;;;;5093041;28;20064;-69
2020/12/05 01:02:25;;;;;;;2.20;1.33;;;16.00;55.90;;;;;;5093333;28;20105;-69
2020/12/05 01:04:51;;;;;;;1.60;1.30;;;15.90;55.90;;;;;;5093104;28;20020;-69
2020/12/05 01:07:25;;;;;;;1.15;0.98;;;15.90;55.90;;;;;;5093263;28;20024;-69
2020/12/05 01:09:51;;;;;;;1.30;1.20;;;15.80;55.90;;;;;;5093188;28;20138;-69
2020/12/05 01:12:17;;;;;;;1.70;1.13;;;15.80;56.00;;;;;;5093253;28;20016;-69
2020/12/05 01:14:43;;;;;;;2.13;1.15;;;15.90;56.10;;;;;;5093114;28;20054;-69
2020/12/05 01:17:08;;;;;;;1.63;1.10;;;15.80;56.00;;;;;;5092881;28;20470;-69
2020/12/05 01:19:34;;;;;;;1.90;1.10;;;15.80;56.00;;;;;;5093062;28;20039;-69
2020/12/05 01:22:00;;;;;;;2.83;0.90;;;16.10;56.30;;;;;;5092970;28;20449;-69
2020/12/05 01:24:25;;;;;;;1.38;1.10;;;15.70;56.10;;;;;;5092463;28;20131;-69
2020/12/05 01:26:51;;;;;;;1.92;1.15;;;15.70;56.10;;;;;;5092909;28;20107;-69
2020/12/05 01:29:16;;;;;;;1.20;0.98;;;15.70;56.20;;;;;;5092625;28;20012;-69
2020/12/05 01:31:45;;;;;;;1.40;0.90;;;15.70;56.20;;;;;;5092929;28;20020;-69
2020/12/05 01:34:11;;;;;;;1.10;1.00;;;15.70;56.20;;;;;;5092849;28;20073;-69
2020/12/05 01:36:37;;;;;;;1.10;0.98;;;15.80;56.20;;;;;;5092922;28;20573;-69
2020/12/05 01:39:02;;;;;;;2.03;1.08;;;15.60;56.20;;;;;;5092539;28;20043;-69
2020/12/05 01:41:28;;;;;;;1.20;1.02;;;15.60;56.20;;;;;;5092709;28;20105;-68
2020/12/05 01:43:54;;;;;;;1.10;0.95;;;15.50;56.20;;;;;;5092782;28;20484;-69
2020/12/05 01:46:40;;;;;;;3.45;1.30;;;15.60;56.20;;;;;;5092536;28;20032;-69
2020/12/05 01:49:08;;;;;;;2.45;0.98;;;15.60;56.30;;;;;;5092414;28;20024;-69
2020/12/05 01:51:35;;;;;;;1.23;1.10;;;15.60;56.20;;;;;;5092944;28;20024;-69
2020/12/05 01:54:02;;;;;;;2.40;1.40;;;15.60;56.20;;;;;;5095662;28;20016;-69
2020/12/05 01:56:27;;;;;;;1.90;1.00;;;15.60;56.20;;;;;;5096591;28;20062;-69
2020/12/05 01:58:54;;;;;;;1.17;1.10;;;15.50;56.40;;;;;;5096782;28;20268;-69
2020/12/05 02:01:26;;;;;;;1.38;1.02;;;15.60;56.60;;;;;;5078222;28;20043;-69
2020/12/05 02:03:56;;;;;;;3.40;1.52;;;15.70;56.40;;;;;;5096720;28;20031;-69
2020/12/05 02:06:59;;;;;;;3.17;1.10;;;15.70;56.50;;;;;;5096262;28;20462;-69
2020/12/05 02:09:34;;;;;;;1.10;1.00;;;15.70;56.20;;;;;;5096599;28;20060;-69
2020/12/05 02:12:07;;;;;;;1.65;1.30;;;15.80;56.20;;;;;;5096626;28;20431;-69
2020/12/05 02:14:36;;;;;;;1.63;1.15;;;15.80;56.10;;;;;;5096292;28;20020;-69
2020/12/05 02:17:04;;;;;;;2.50;1.10;;;15.90;56.10;;;;;;5096123;28;20497;-69
2020/12/05 02:19:44;;;;;;;1.85;1.02;;;15.90;56.00;;;;;;5077955;28;20458;-69
2020/12/05 02:22:13;;;;;;;1.20;1.10;;;16.00;56.00;;;;;;5096039;28;20110;-69
2020/12/05 02:24:39;;;;;;;1.80;1.00;;;16.00;56.00;;;;;;5095864;28;20052;-69
2020/12/05 02:27:06;;;;;;;1.65;1.38;;;16.00;55.90;;;;;;5096184;28;20035;-69
2020/12/05 02:29:34;;;;;;;2.15;1.20;;;16.10;55.90;;;;;;5095914;28;20497;-69
2020/12/05 02:32:03;;;;;;;1.95;1.17;;;16.10;55.80;;;;;;5096165;28;20016;-69
2020/12/05 02:34:30;;;;;;;1.30;1.20;;;16.10;55.90;;;;;;5096227;28;20374;-69
2020/12/05 02:37:02;;;;;;;2.33;1.08;;;16.10;55.70;;;;;;5096153;28;20020;-69
2020/12/05 02:39:29;;;;;;;1.55;1.20;;;16.10;55.70;;;;;;5096029;28;20054;-69
2020/12/05 02:41:55;;;;;;;1.95;1.13;;;16.10;55.70;;;;;;5095721;28;20028;-69
2020/12/05 02:44:21;;;;;;;2.00;1.30;;;16.10;55.90;;;;;;5095730;28;20531;-69
2020/12/05 02:46:49;;;;;;;1.60;1.20;;;16.10;55.90;;;;;;5095660;28;20458;-69
2020/12/05 02:49:15;;;;;;;1.88;0.90;;;16.10;55.90;;;;;;5095591;28;20469;-69
2020/12/05 02:51:41;;;;;;;1.50;1.10;;;16.00;55.90;;;;;;5095707;28;20038;-69
2020/12/05 02:54:08;;;;;;;1.95;1.10;;;16.00;55.90;;;;;;5095517;28;20032;-69
2020/12/05 02:56:34;;;;;;;1.38;1.20;;;16.00;55.90;;;;;;5095398;28;20111;-69
2020/12/05 02:59:00;;;;;;;1.60;1.23;;;16.00;56.00;;;;;;5095702;28;20023;-69
2020/12/05 03:01:25;;;;;;;1.23;1.13;;;15.90;55.90;;;;;;5095518;28;20497;-69
2020/12/05 03:03:51;;;;;;;2.75;1.38;;;16.10;55.90;;;;;;5095404;28;20598;-68
2020/12/05 03:06:17;;;;;;;1.48;0.98;;;15.90;55.80;;;;;;5094873;28;20024;-69
2020/12/05 03:08:43;;;;;;;1.70;1.35;;;15.90;55.90;;;;;;5077003;28;20028;-69
2020/12/05 03:11:08;;;;;;;2.55;1.40;;;15.80;55.90;;;;;;5095160;28;20031;-69
2020/12/05 03:13:34;;;;;;;1.75;1.30;;;15.80;56.00;;;;;;5095361;28;20149;-69
2020/12/05 03:16:00;;;;;;;1.20;1.10;;;15.80;56.00;;;;;;5095325;28;20084;-69
2020/12/05 03:18:25;;;;;;;2.65;1.33;;;15.70;55.90;;;;;;5095652;28;20020;-69
2020/12/05 03:20:51;;;;;;;2.45;1.38;;;15.70;56.00;;;;;;5094953;28;20032;-69
2020/12/05 03:23:16;;;;;;;1.85;1.30;;;15.70;56.00;;;;;;5095098;28;20028;-69
2020/12/05 03:25:42;;;;;;;1.38;1.10;;;15.70;56.00;;;;;;5066254;28;20158;-69
2020/12/05 03:28:08;;;;;;;1.33;1.02;;;15.70;56.00;;;;;;5074971;28;20102;-69
2020/12/05 03:30:33;;;;;;;2.45;1.08;;;15.70;56.10;;;;;;5074874;28;20389;-69
2020/12/05 03:32:59;;;;;;;1.88;1.38;;;15.60;56.10;;;;;;5074834;28;20491;-69
2020/12/05 03:35:26;;;;;;;3.65;1.27;;;15.80;56.30;;;;;;5074866;28;20106;-69
2020/12/05 03:37:52;;;;;;;1.55;1.25;;;15.60;56.20;;;;;;5074412;28;20467;-69
2020/12/05 03:40:18;;;;;;;2.92;1.23;;;15.50;56.20;;;;;;5074603;28;20452;-69
2020/12/05 03:42:44;;;;;;;1.73;1.20;;;15.50;56.40;;;;;;5074645;28;20107;-69
2020/12/05 03:45:10;;;;;;;2.10;1.33;;;15.50;56.10;;;;;;5074634;28;20025;-69
2020/12/05 03:47:35;;;;;;;1.27;1.02;;;15.50;56.20;;;;;;5074290;28;20064;-69
2020/12/05 03:50:03;;;;;;;1.48;1.25;;;15.50;56.20;;;;;;5074202;28;20051;-69
2020/12/05 03:52:29;;;;;;;1.33;1.00;;;15.50;56.30;;;;;;5074099;28;20059;-69
2020/12/05 03:54:55;;;;;;;1.45;1.00;;;15.60;56.40;;;;;;5074097;28;20033;-69
2020/12/05 03:57:21;;;;;;;1.10;0.90;;;15.60;56.30;;;;;;5074383;28;20062;-69
2020/12/05 03:59:47;;;;;;;1.30;1.20;;;15.70;56.20;;;;;;5074030;28;20489;-69
2020/12/05 04:02:13;;;;;;;1.75;0.88;;;15.80;56.10;;;;;;5073774;28;20029;-69
2020/12/05 04:04:39;;;;;;;1.88;1.13;;;15.70;55.90;;;;;;5073923;28;20036;-69
2020/12/05 04:07:04;;;;;;;2.55;1.10;;;15.90;56.00;;;;;;5074190;28;20044;-69
2020/12/05 04:09:30;;;;;;;1.58;1.10;;;16.10;56.00;;;;;;5074161;28;20054;-69
2020/12/05 04:11:55;;;;;;;0.80;0.80;;;16.10;55.70;;;;;;5073765;28;20028;-69
2020/12/05 04:14:21;;;;;;;2.10;1.13;;;16.10;55.80;;;;;;5074013;28;20028;-69
2020/12/05 04:16:46;;;;;;;1.85;1.10;;;16.10;55.70;;;;;;5073615;28;20050;-69
2020/12/05 04:19:12;;;;;;;1.98;1.30;;;16.20;55.80;;;;;;5073693;28;20024;-69
2020/12/05 04:21:38;;;;;;;2.45;1.30;;;16.20;55.80;;;;;;5073428;28;20467;-69
2020/12/05 04:24:04;;;;;;;1.58;0.98;;;16.10;55.60;;;;;;5074604;27;20098;-69
2020/12/05 04:26:29;;;;;;;1.38;1.27;;;16.10;55.70;;;;;;5073578;28;20028;-69
2020/12/05 04:28:55;;;;;;;1.40;0.90;;;16.10;55.80;;;;;;5073355;28;20034;-69
2020/12/05 04:31:21;;;;;;;2.20;1.17;;;16.10;55.90;;;;;;5073619;28;20025;-69
2020/12/05 04:33:46;;;;;;;1.90;1.42;;;16.00;55.90;;;;;;5073287;28;20017;-69
2020/12/05 04:36:12;;;;;;;1.50;0.88;;;16.00;55.90;;;;;;5073866;28;20028;-69
2020/12/05 04:38:38;;;;;;;1.23;0.93;;;16.00;56.70;;;;;;5073425;28;20016;-69
2020/12/05 04:41:03;;;;;;;2.67;1.10;;;15.90;56.10;;;;;;5073102;28;20421;-69
2020/12/05 04:43:30;;;;;;;1.25;1.10;;;15.90;56.10;;;;;;5073451;28;20021;-69
2020/12/05 04:45:56;;;;;;;1.77;1.27;;;15.90;56.00;;;;;;5073303;28;20021;-69
2020/12/05 04:48:22;;;;;;;1.80;1.20;;;15.90;56.10;;;;;;5073282;28;20017;-69
2020/12/05 04:50:48;;;;;;;2.60;1.23;;;15.80;56.00;;;;;;5073144;28;20020;-69
2020/12/05 04:53:18;;;;;;;1.88;1.00;;;15.80;56.00;;;;;;5072942;28;20021;-69
2020/12/05 04:55:45;;;;;;;1.27;1.00;;;15.80;56.10;;;;;;5073157;28;20429;-69
2020/12/05 04:58:19;;;;;;;1.35;1.10;;;15.80;56.10;;;;;;5073061;28;20017;-69
2020/12/05 05:00:46;;;;;;;1.60;1.00;;;15.70;56.20;;;;;;5072703;28;20036;-69
2020/12/05 05:03:15;;;;;;;1.27;0.98;;;15.70;56.20;;;;;;5073035;28;20031;-69
2020/12/05 05:05:41;;;;;;;1.55;1.27;;;15.70;56.20;;;;;;5072697;28;20024;-69
2020/12/05 05:08:07;;;;;;;1.67;1.30;;;15.60;56.20;;;;;;5073084;28;20028;-69
2020/12/05 05:10:34;;;;;;;1.60;1.13;;;15.60;56.20;;;;;;5072956;28;20024;-69
2020/12/05 05:13:05;;;;;;;2.00;1.10;;;15.60;56.20;;;;;;5072970;28;20059;-69
2020/12/05 05:15:31;;;;;;;2.47;1.00;;;15.60;56.30;;;;;;5072918;28;20078;-69
2020/12/05 05:18:04;;;;;;;1.60;1.10;;;15.50;56.20;;;;;;5072872;28;20067;-69
2020/12/05 05:20:35;;;;;;;1.48;1.38;;;15.50;56.20;;;;;;5072848;28;20044;-69
2020/12/05 05:23:18;;;;;;;2.38;1.08;;;15.50;56.30;;;;;;5072890;28;20093;-69
2020/12/05 05:25:56;;;;;;;1.33;1.00;;;15.50;56.20;;;;;;5091468;28;20133;-69
2020/12/05 05:28:35;;;;;;;2.42;1.00;;;15.50;56.40;;;;;;5092923;28;20025;-69
2020/12/05 05:33:47;;;;;;;3.60;1.25;;;15.60;56.40;;;;;;5092803;28;20086;-69
2020/12/05 05:36:30;;;;;;;0.90;0.80;;;15.70;56.30;;;;;;5092888;28;20020;-69
2020/12/05 05:38:57;;;;;;;1.02;0.93;;;15.70;56.10;;;;;;5092886;28;20027;-69
2020/12/05 05:41:23;;;;;;;1.15;0.80;;;15.90;56.20;;;;;;5092741;28;20046;-69
2020/12/05 05:44:03;;;;;;;1.52;0.80;;;15.90;56.00;;;;;;5092823;28;20517;-69
2020/12/05 05:46:32;;;;;;;1.33;0.90;;;16.00;56.00;;;;;;5092590;28;20032;-69
2020/12/05 05:48:58;;;;;;;1.75;1.00;;;16.00;56.00;;;;;;5092504;28;20539;-69
2020/12/05 05:51:47;;;;;;;1.83;0.82;;;16.10;55.80;;;;;;5092273;28;20039;-69
2020/12/05 05:54:31;;;;;;;2.03;1.23;;;16.10;55.70;;;;;;5092757;28;20027;-69
2020/12/05 05:57:15;;;;;;;1.85;1.15;;;16.20;55.70;;;;;;5092437;28;20046;-69
2020/12/05 05:59:43;;;;;;;1.23;0.98;;;16.20;55.70;;;;;;5092727;28;20020;-69
2020/12/05 06:02:14;;;;;;;2.03;1.00;;;16.20;55.80;;;;;;5092555;28;20032;-69
2020/12/05 06:04:40;;;;;;;0.98;0.88;;;16.20;55.70;;;;;;5092613;28;20047;-69
2020/12/05 06:07:12;;;;;;;0.80;0.75;;;16.10;55.60;;;;;;5092357;28;20021;-69
2020/12/05 06:09:43;;;;;;;1.15;1.00;;;16.10;55.90;;;;;;5092651;28;20020;-69
2020/12/05 06:12:15;;;;;;;1.23;0.95;;;16.10;55.70;;;;;;5092579;28;20146;-69
2020/12/05 06:14:41;;;;;;;1.05;0.80;;;16.00;55.80;;;;;;5092283;28;20024;-69
2020/12/05 06:17:08;;;;;;;1.23;0.88;;;16.00;55.80;;;;;;5092260;28;20752;-69
2020/12/05 06:19:34;;;;;;;0.82;0.70;;;16.00;55.80;;;;;;5092495;28;20043;-69
2020/12/05 06:22:00;;;;;;;0.95;0.90;;;15.90;55.90;;;;;;5092384;28;20028;-69
2020/12/05 06:25:04;;;;;;;1.67;0.80;;;15.90;55.90;;;;;;5086830;27;20132;-69
2020/12/05 06:27:35;;;;;;;0.95;0.82;;;15.90;56.70;;;;;;5067982;28;20116;-69
2020/12/05 06:30:05;;;;;;;1.13;0.80;;;15.80;56.00;;;;;;5072292;28;20090;-69
2020/12/05 06:32:40;;;;;;;0.85;0.80;;;15.80;56.00;;;;;;5072216;28;20099;-69
2020/12/05 06:35:17;;;;;;;1.00;0.75;;;15.80;56.00;;;;;;5072191;28;20115;-69
2020/12/05 06:37:43;;;;;;;1.08;0.80;;;15.80;56.20;;;;;;5072141;28;20024;-69
2020/12/05 06:40:09;;;;;;;1.25;0.80;;;15.70;56.00;;;;;;5073226;28;20355;-69
2020/12/05 06:42:43;;;;;;;2.20;1.10;;;15.70;56.10;;;;;;5075442;28;20028;-69
2020/12/05 06:45:31;;;;;;;0.85;0.85;;;15.70;56.20;;;;;;5075703;28;20473;-69
2020/12/05 06:48:08;;;;;;;0.88;0.70;;;15.60;56.10;;;;;;5075308;28;20051;-69
2020/12/05 06:50:35;;;;;;;1.15;0.93;;;15.60;56.20;;;;;;5075413;28;20379;-69
2020/12/05 06:53:01;;;;;;;1.63;1.02;;;15.60;56.20;;;;;;5075266;28;20029;-69
2020/12/05 06:55:32;;;;;;;0.95;0.90;;;15.60;56.20;;;;;;5075493;28;20061;-69
2020/12/05 06:58:06;;;;;;;0.88;0.77;;;15.50;56.20;;;;;;5075134;28;20033;-69
2020/12/05 07:00:36;;;;;;;1.60;0.90;;;15.50;56.30;;;;;;5075037;28;20028;-69
2020/12/05 07:03:06;;;;;;;;;;;15.00;56.60;;;;;;5075718;28;20415;-69
2020/12/05 07:05:45;;;;;;;2.00;0.93;;;15.50;56.30;;;;;;5075015;28;19911;-69
2020/12/05 07:08:19;;;;;;;1.45;0.98;;;15.50;56.30;;;;;;5074965;28;20025;-68
2020/12/05 07:10:47;;;;;;;1.10;0.77;;;15.40;56.50;;;;;;5075201;28;20031;-69
2020/12/05 07:13:18;;;;;;;1.20;1.08;;;15.40;56.20;;;;;;5074898;28;20107;-69
2020/12/05 07:15:44;;;;;;;1.05;0.82;;;15.40;56.30;;;;;;5075085;28;20039;-69
2020/12/05 07:18:18;;;;;;;2.10;1.10;;;15.40;56.30;;;;;;5074700;28;20016;-69
2020/12/05 07:20:44;;;;;;;1.10;1.00;;;15.40;56.40;;;;;;5075319;28;20087;-69
2020/12/05 07:23:09;;;;;;;0.98;0.80;;;15.40;56.50;;;;;;5074621;28;20021;-70
2020/12/05 07:25:35;;;;;;;1.40;0.95;;;15.40;57.30;;;;;;5075856;28;20059;-69
2020/12/05 07:28:01;;;;;;;1.23;0.80;;;15.40;56.80;;;;;;5094823;28;20028;-69
2020/12/05 07:30:26;;;;;;;1.75;1.10;;;15.70;73.70;;;;;;5095050;28;20046;-69
2020/12/05 07:32:52;;;;;;;4.85;1.00;;;15.40;57.00;;;;;;5094743;28;20035;-70
2020/12/05 07:35:18;;;;;;;1.48;0.90;;;15.40;57.10;;;;;;5095282;28;20031;-69
2020/12/05 07:37:45;;;;;;;2.05;1.13;;;15.30;57.00;;;;;;5094694;28;20030;-69
2020/12/05 07:40:11;;;;;;;1.98;1.15;;;15.30;57.00;;;;;;5094807;28;20020;-70
2020/12/05 07:42:42;;;;;;;1.80;1.02;;;15.30;57.00;;;;;;5094826;28;20115;-70
2020/12/05 07:45:11;;;;;;;;;;;15.30;57.00;;;;;;5095195;28;20035;-70
2020/12/05 07:47:38;;;;;;;1.23;1.10;;;15.20;57.00;;;;;;5094655;28;19912;-70
2020/12/05 07:50:05;;;;;;;1.40;1.20;;;15.20;57.70;;;;;;5094603;28;20028;-69
2020/12/05 07:52:31;;;;;;;1.95;1.33;;;15.20;57.10;;;;;;5094248;28;20112;-69
2020/12/05 07:55:01;;;;;;;2.85;1.30;;;15.20;57.10;;;;;;5094433;28;20102;-69
2020/12/05 07:57:33;;;;;;;4.07;1.20;;;15.10;57.10;;;;;;5094553;28;20016;-69
2020/12/05 08:00:08;;;;;;;1.42;0.90;;;15.10;57.10;;;;;;5094244;28;20531;-70
2020/12/05 08:02:34;;;;;;;1.48;0.80;;;15.10;57.10;;;;;;5094408;28;20091;-69
2020/12/05 08:05:18;;;;;;;1.23;1.05;;;15.10;57.20;;;;;;5094074;28;20020;-69
2020/12/05 08:07:54;;;;;;;1.50;1.15;;;15.10;57.30;;;;;;5094105;28;20036;-69
2020/12/05 08:10:22;;;;;;;1.55;0.95;;;15.10;57.80;;;;;;5094349;28;20069;-68
2020/12/05 08:13:17;;;;;;;4.05;1.00;;;15.20;57.90;;;;;;5094246;28;20032;-69
2020/12/05 08:15:45;;;;;;;7.03;1.50;;;15.30;58.30;;;;;;5094286;28;20016;-69
2020/12/05 08:18:13;;;;;;;6.57;1.00;;;15.40;57.80;;;;;;5093861;28;20028;-70
2020/12/05 08:20:44;;;;;;;2.95;0.88;;;15.30;58.00;;;;;;5093998;28;20032;-69
2020/12/05 08:23:23;;;;;;;2.78;1.08;;;15.20;58.00;;;;;;5093704;28;20054;-69
2020/12/05 08:25:50;;;;;;;2.85;1.00;;;15.20;58.10;;;;;;5093977;27;20051;-69
2020/12/05 08:28:19;;;;;;;2.72;1.00;;;15.40;58.20;;;;;;5093672;28;20107;-69
2020/12/05 08:30:46;;;;;;;6.68;1.08;;;15.20;58.10;;;;;;5085441;28;20055;-69
2020/12/05 08:33:13;;;;;;;1.35;1.00;;;15.10;58.10;;;;;;5093806;28;20061;-69
2020/12/05 08:35:39;;;;;;;2.25;1.38;;;15.10;58.10;;;;;;5093827;28;20107;-69
2020/12/05 08:38:04;;;;;;;1.20;0.90;;;15.00;58.00;;;;;;5093461;28;20112;-69
2020/12/05 08:40:30;;;;;;;3.22;1.10;;;15.00;58.10;;;;;;5093895;28;20032;-69
2020/12/05 08:42:57;;;;;;;2.42;1.38;;;15.00;58.70;;;;;;5093717;28;20431;-66
2020/12/05 08:45:22;;;;;;;5.65;1.65;;;15.00;58.60;;;;;;5093604;28;20363;-68
2020/12/05 08:47:51;;;;;;;5.22;1.92;;;15.20;59.50;;;;;;5093608;28;20030;-69
2020/12/05 08:50:32;;;;;;;9.70;2.13;;;15.20;59.20;;;;;;5093580;28;20067;-70
2020/12/05 08:53:04;;;;;;;3.90;1.48;;;15.30;59.20;;;;;;5071598;28;20120;-70
2020/12/05 08:55:32;;;;;;;6.03;1.83;;;15.40;59.10;;;;;;5072956;28;20417;-69
2020/12/05 08:58:02;;;;;;;6.25;1.55;;;15.40;59.30;;;;;;5073089;28;20025;-69
2020/12/05 09:00:31;;;;;;;3.60;1.58;;;15.40;59.50;;;;;;5073032;28;20021;-69
2020/12/05 09:02:57;;;;;;;6.93;2.03;;;15.40;59.40;;;;;;5072352;28;20028;-69
2020/12/05 09:05:23;;;;;;;3.90;2.10;;;15.50;59.50;;;;;;5072846;28;20029;-69
2020/12/05 09:07:59;;;;;;;3.50;1.63;;;15.50;59.30;;;;;;5072523;28;20020;-68
2020/12/05 09:10:27;;;;;;;9.38;1.83;;;15.60;58.80;;;;;;5072661;28;20558;-71
2020/12/05 09:13:03;;;;;;;5.95;1.73;;;15.60;58.70;;;;;;5072974;28;20389;-69
2020/12/05 09:15:28;;;;;;;4.00;1.50;;;15.70;58.70;;;;;;5072765;28;20036;-69
2020/12/05 09:17:58;;;;;;;6.43;1.42;;;15.70;59.00;;;;;;5072843;28;20028;-70
2020/12/05 09:20:24;;;;;;;6.87;1.70;;;15.80;59.10;;;;;;5072593;28;20028;-70
2020/12/05 09:22:59;;;;;;;4.65;1.67;;;15.90;59.00;;;;;;5072703;28;20378;-66
2020/12/05 09:25:36;;;;;;;4.22;1.73;;;15.80;58.60;;;;;;5073438;28;20052;-65
2020/12/05 09:28:11;;;;;;;3.60;1.08;;;15.90;58.20;;;;;;5072680;28;20411;-64
2020/12/05 09:30:38;;;;;;;5.00;1.75;;;15.90;58.30;;;;;;5072814;28;20021;-65
2020/12/05 09:33:10;;;;;;;5.80;1.58;;;15.90;58.20;;;;;;5072695;28;20477;-66
2020/12/05 09:35:36;;;;;;;2.17;1.40;;;15.90;58.20;;;;;;5074140;28;20024;-64
2020/12/05 09:38:02;;;;;;;9.85;1.40;;;15.90;58.00;;;;;;5072643;28;20023;-64
2020/12/05 09:40:29;;;;;;;3.90;1.52;;;15.90;57.80;;;;;;5073433;28;20040;-64
2020/12/05 09:42:54;;;;;;;3.55;1.33;;;16.00;57.50;;;;;;5073121;28;20489;-64
2020/12/05 09:45:20;;;;;;;3.92;1.20;;;16.00;57.40;;;;;;5072674;28;20030;-68
2020/12/05 09:47:45;;;;;;;4.47;1.30;;;16.10;57.40;;;;;;5072341;28;20107;-68
2020/12/05 09:50:12;;;;;;;3.17;1.30;;;16.20;57.00;;;;;;5071922;28;20128;-69
2020/12/05 09:52:38;;;;;;;6.97;1.30;;;16.40;56.80;;;;;;5071566;28;20351;-69
2020/12/05 09:55:04;;;;;;;6.13;1.30;;;16.50;56.60;;;;;;5072749;28;20031;-69
2020/12/05 09:57:29;;;;;;;3.65;1.33;;;16.60;56.40;;;;;;5072617;28;20107;-69
2020/12/05 09:59:56;;;;;;;11.00;1.67;;;16.70;56.30;;;;;;5072276;28;20112;-69
2020/12/05 10:02:21;;;;;;;2.20;0.90;;;16.80;56.10;;;;;;5072370;28;20051;-69
2020/12/05 10:04:47;;;;;;;2.08;1.20;;;16.90;55.80;;;;;;5072951;28;20025;-70
2020/12/05 10:07:13;;;;;;;3.97;1.60;;;17.00;55.60;;;;;;5073136;28;20021;-66
2020/12/05 10:09:38;;;;;;;2.50;0.98;;;17.10;55.50;;;;;;5072563;28;20040;-66
2020/12/05 10:12:04;;;;;;;2.25;1.10;;;17.30;55.60;;;;;;5072525;28;20107;-67
2020/12/05 10:14:30;;;;;;;5.22;1.20;;;17.30;55.70;;;;;;5075224;28;20063;-69
2020/12/05 10:16:55;;;;;;;3.20;0.98;;;17.40;55.70;;;;;;5075242;28;20111;-69
2020/12/05 10:19:21;;;;;;;5.03;1.50;;;17.40;55.40;;;;;;5076169;28;20390;-69
2020/12/05 10:21:55;;;;;;;5.00;1.25;;;17.40;55.10;;;;;;5076272;28;20024;-64
2020/12/05 10:24:27;;;;;;;3.97;1.55;;;17.50;54.70;;;;;;5076897;27;20033;-68
2020/12/05 10:26:54;;;;;;;4.95;1.13;;;17.60;54.00;;;;;;5075854;28;20063;-70
2020/12/05 10:29:24;;;;;;;3.35;1.25;;;17.60;53.80;;;;;;5075919;28;20024;-67
2020/12/05 10:31:50;;;;;;;;;;;17.70;53.30;;;;;;5076405;28;20083;-68
2020/12/05 10:34:17;;;;;;;2.08;1.10;;;17.70;53.10;;;;;;5076419;28;19981;-68
2020/12/05 10:36:43;;;;;;;2.28;1.42;;;17.70;52.60;;;;;;5076194;28;20036;-68
2020/12/05 10:39:10;;;;;;;5.53;1.52;;;17.70;52.30;;;;;;5075905;28;20119;-68
2020/12/05 10:41:36;;;;;;;4.38;0.95;;;17.70;52.20;;;;;;5075708;28;20036;-68
2020/12/05 10:44:03;;;;;;;2.80;0.93;;;17.70;52.10;;;;;;5075776;28;20025;-68
2020/12/05 10:46:29;;;;;;;5.57;0.70;;;17.80;52.50;;;;;;5075419;28;20059;-67
2020/12/05 10:48:55;;;;;;;4.97;1.08;;;17.80;53.60;;;;;;5075590;28;20037;-68
2020/12/05 10:51:20;;;;;;;1.40;0.90;;;17.80;53.70;;;;;;5075258;28;20063;-68
2020/12/05 10:53:46;;;;;;;7.90;1.40;;;17.80;55.00;;;;;;5075389;28;20115;-68
2020/12/05 10:56:11;;;;;;;2.40;1.27;;;17.80;57.00;;;;;;5076305;28;20107;-68
2020/12/05 10:58:37;;;;;;;3.75;1.52;;;17.90;58.10;;;;;;5075465;28;20020;-68
2020/12/05 11:01:03;;;;;;;2.60;1.13;;;17.80;58.70;;;;;;5075019;28;20032;-68
2020/12/05 11:03:28;;;;;;;2.97;1.02;;;17.90;59.30;;;;;;5075427;28;20024;-68
2020/12/05 11:05:54;;;;;;;4.35;0.95;;;17.90;60.40;;;;;;5075257;28;20466;-67
2020/12/05 11:08:19;;;;;;;2.35;1.10;;;17.80;61.40;;;;;;5074975;28;20056;-68
2020/12/05 11:10:45;;;;;;;4.30;1.10;;;17.80;60.10;;;;;;5075111;28;20017;-68
2020/12/05 11:13:10;;;;;;;1.63;1.23;;;17.90;60.10;;;;;;5075045;28;20530;-69
2020/12/05 11:15:37;;;;;;;1.52;1.05;;;17.90;60.40;;;;;;5075128;28;20017;-69
2020/12/05 11:18:03;;;;;;;3.20;0.90;;;17.90;60.80;;;;;;5074616;28;20419;-69
2020/12/05 11:20:29;;;;;;;5.38;1.13;;;17.90;62.20;;;;;;5074152;28;20019;-65
2020/12/05 11:22:54;;;;;;;1.92;1.13;;;17.90;63.50;;;;;;5074818;28;20028;-67
2020/12/05 11:25:20;;;;;;;2.60;1.17;;;18.00;64.50;;;;;;5075801;28;20048;-68
2020/12/05 11:27:45;;;;;;;2.35;0.80;;;18.00;65.30;;;;;;5075440;28;20027;-71
2020/12/05 11:30:11;;;;;;;2.35;0.95;;;18.10;65.70;;;;;;5075517;28;20355;-67
2020/12/05 11:32:37;;;;;;;2.80;0.80;;;18.20;66.10;;;;;;5075020;28;20127;-69
2020/12/05 11:35:06;;;;;;;1.70;0.98;;;18.30;66.30;;;;;;5074746;28;20040;-71
2020/12/05 11:37:32;;;;;;;2.55;0.80;;;18.40;66.70;;;;;;5074653;28;20017;-71
2020/12/05 11:39:58;;;;;;;3.40;1.00;;;18.40;66.70;;;;;;5074523;28;20028;-71
2020/12/05 11:42:27;;;;;;;2.90;0.85;;;18.50;66.80;;;;;;5074444;28;20041;-71
2020/12/05 11:44:53;;;;;;;1.58;0.70;;;18.50;66.70;;;;;;5074547;28;20021;-71
2020/12/05 11:47:19;;;;;;;1.90;0.70;;;18.60;66.40;;;;;;5074578;28;20035;-71
2020/12/05 11:49:44;;;;;;;2.33;0.80;;;18.70;66.20;;;;;;5074056;28;20490;-71
2020/12/05 11:52:10;;;;;;;5.05;1.15;;;18.80;65.90;;;;;;5073955;28;20036;-71
2020/12/05 11:54:36;;;;;;;2.10;1.10;;;18.80;65.60;;;;;;5072589;28;20029;-71
2020/12/05 11:57:01;;;;;;;2.65;1.33;;;18.90;65.50;;;;;;5074463;28;20033;-71
2020/12/05 11:59:27;;;;;;;2.05;1.20;;;18.90;65.10;;;;;;5074541;28;20027;-70
2020/12/05 12:01:52;;;;;;;2.13;1.02;;;19.00;64.80;;;;;;5073928;28;20032;-71
2020/12/05 12:04:19;;;;;;;2.00;1.30;;;19.00;64.40;;;;;;5074299;28;20021;-71
2020/12/05 12:06:44;;;;;;;2.70;1.20;;;18.90;64.10;;;;;;5073177;28;20029;-71
2020/12/05 12:09:10;;;;;;;2.55;1.15;;;18.90;64.00;;;;;;5074149;28;20074;-71
2020/12/05 12:11:36;;;;;;;2.08;1.23;;;18.80;63.60;;;;;;5073755;28;20025;-72
2020/12/05 12:14:01;;;;;;;1.23;0.90;;;18.80;63.50;;;;;;5073580;28;20024;-72
2020/12/05 12:16:27;;;;;;;1.20;1.00;;;18.80;63.60;;;;;;5073706;28;20029;-71
2020/12/05 12:18:53;;;;;;;1.48;1.00;;;18.80;63.40;;;;;;5074196;28;20056;-75
2020/12/05 12:21:26;;;;;;;2.22;1.10;;;18.90;63.00;;;;;;5073884;28;20025;-77
2020/12/05 12:23:52;;;;;;;3.78;1.20;;;18.90;60.30;;;;;;5073645;28;20028;-75
2020/12/05 12:26:18;;;;;;;2.67;0.90;;;18.90;58.80;;;;;;5075311;28;20600;-74
2020/12/05 12:28:45;;;;;;;4.32;0.73;;;19.10;57.80;;;;;;5073729;28;20024;-71
2020/12/05 12:31:11;;;;;;;2.53;0.90;;;19.30;56.00;;;;;;5073574;28;20078;-73
2020/12/05 12:33:38;;;;;;;3.53;0.98;;;19.30;56.30;;;;;;5073379;28;20025;-73
2020/12/05 12:36:03;;;;;;;1.70;0.85;;;19.20;56.50;;;;;;5069687;28;20016;-78
2020/12/05 12:38:29;;;;;;;3.22;1.08;;;19.30;57.10;;;;;;5092764;28;20044;-72
2020/12/05 12:40:55;;;;;;;1.23;0.75;;;19.30;57.40;;;;;;5093816;28;20454;-72
2020/12/05 12:43:20;;;;;;;3.80;0.70;;;19.20;57.70;;;;;;5093535;28;20028;-73
2020/12/05 12:45:47;;;;;;;2.92;0.82;;;19.10;58.00;;;;;;5093376;28;20103;-71
2020/12/05 12:50:40;;;;;;;3.42;0.90;;;18.90;58.10;;;;;;5093241;28;20055;-71
2020/12/05 12:53:06;;;;;;;1.30;0.80;;;18.90;58.20;;;;;;5093391;28;20351;-72
2020/12/05 12:55:32;;;;;;;2.72;0.93;;;18.80;58.50;;;;;;5093159;28;20043;-72
2020/12/05 12:58:08;;;;;;;1.48;0.70;;;18.70;58.60;;;;;;5093326;28;20020;-70